Time;durP1;ratioP1;P1;durP2;ratioP2;P2;SDS_P1;SDS_P2;PMS_P1;PMS_P2;Temp;Humidity;BMP_temperature;BMP_pressure;BME280_temperature;BME280_humidity;BME280_pressure;Samples;Min_cycle;Max_cycle;Signal;HPM_P1;HPM_P2
2021/04/14 00:01:17;;;;;;;5.83;3.60;;;2.30;97.30;;;;;;4996041;28;20213;-83
2021/04/14 00:03:45;;;;;;;4.33;3.10;;;2.20;97.30;;;;;;5012712;28;20216;-83
2021/04/14 00:06:11;;;;;;;8.37;3.73;;;2.20;97.30;;;;;;5008634;28;20222;-84
2021/04/14 00:08:36;;;;;;;7.50;3.60;;;2.20;97.30;;;;;;5015782;28;20420;-83
2021/04/14 00:11:05;;;;;;;8.03;3.87;;;2.20;97.30;;;;;;5015524;28;20467;-84
2021/04/14 00:13:37;;;;;;;7.10;3.43;;;2.20;97.30;;;;;;5015901;28;20172;-83
2021/04/14 00:16:03;;;;;;;6.73;3.63;;;2.10;97.30;;;;;;5015960;28;20415;-84
2021/04/14 00:18:29;;;;;;;9.50;4.03;;;2.10;97.30;;;;;;5016077;28;20937;-84
2021/04/14 00:20:54;;;;;;;8.60;4.93;;;2.00;97.30;;;;;;5015624;28;20199;-84
2021/04/14 00:23:22;;;;;;;5.47;3.30;;;2.00;97.30;;;;;;5015823;28;20702;-83
2021/04/14 00:25:50;;;;;;;6.70;3.83;;;2.00;97.30;;;;;;5015881;28;20291;-83
2021/04/14 00:28:18;;;;;;;8.50;4.00;;;2.00;97.30;;;;;;5015835;28;20494;-84
2021/04/14 00:30:44;;;;;;;6.73;4.07;;;2.00;97.30;;;;;;5015492;28;20435;-83
2021/04/14 00:33:11;;;;;;;8.40;4.03;;;2.00;97.30;;;;;;5015631;28;20829;-84
2021/04/14 00:35:37;;;;;;;5.77;4.13;;;1.90;97.30;;;;;;5016371;28;20507;-84
2021/04/14 00:38:03;;;;;;;6.10;3.50;;;1.90;97.30;;;;;;5034208;28;20854;-84
2021/04/14 00:40:35;;;;;;;5.33;3.53;;;1.90;97.30;;;;;;5016663;28;20192;-83
2021/04/14 00:43:13;;;;;;;11.73;4.30;;;1.90;97.30;;;;;;5016719;28;20481;-84
2021/04/14 00:45:40;;;;;;;5.77;3.83;;;1.90;97.30;;;;;;5017347;28;20458;-84
2021/04/14 00:48:06;;;;;;;8.10;3.87;;;1.90;97.30;;;;;;5001333;28;20507;-84
2021/04/14 00:50:32;;;;;;;6.27;4.20;;;1.90;97.30;;;;;;4997358;28;20495;-84
2021/04/14 00:52:58;;;;;;;13.63;4.10;;;1.90;97.30;;;;;;4997425;28;20420;-83
2021/04/14 00:55:26;;;;;;;10.10;4.50;;;1.80;97.30;;;;;;4997302;28;20412;-83
2021/04/14 00:57:52;;;;;;;10.97;4.33;;;1.70;97.30;;;;;;4997246;28;20181;-84
2021/04/14 01:00:38;;;;;;;7.17;3.83;;;1.70;97.30;;;;;;4997073;28;20515;-84
2021/04/14 01:03:06;;;;;;;5.40;3.40;;;1.70;97.30;;;;;;4996950;28;20252;-83
2021/04/14 01:05:35;;;;;;;6.80;3.47;;;1.60;97.30;;;;;;5005389;28;20447;-85
2021/04/14 01:08:00;;;;;;;9.03;3.57;;;1.60;97.30;;;;;;5016884;28;20478;-82
2021/04/14 01:10:26;;;;;;;8.20;4.30;;;1.60;97.30;;;;;;5015647;28;20415;-83
2021/04/14 01:12:54;;;;;;;13.87;4.50;;;1.60;97.30;;;;;;5015691;28;20226;-84
2021/04/14 01:15:24;;;;;;;6.50;4.13;;;1.60;97.30;;;;;;5015785;28;20415;-84
2021/04/14 01:17:50;;;;;;;12.23;4.37;;;1.60;97.30;;;;;;5016032;28;20429;-83
2021/04/14 01:20:17;;;;;;;10.83;4.30;;;1.60;97.30;;;;;;5015320;28;20430;-84
2021/04/14 01:22:42;;;;;;;8.97;4.37;;;1.60;97.30;;;;;;5033643;28;20449;-85
2021/04/14 01:25:09;;;;;;;7.17;4.37;;;1.50;97.30;;;;;;5015798;28;20687;-84
2021/04/14 01:27:35;;;;;;;9.77;4.20;;;1.50;97.30;;;;;;5015464;28;20181;-83
2021/04/14 01:30:07;;;;;;;11.57;4.10;;;1.50;97.30;;;;;;5015095;28;20426;-85
2021/04/14 01:32:32;;;;;;;8.17;4.30;;;1.50;97.30;;;;;;5015320;28;20683;-83
2021/04/14 01:34:58;;;;;;;7.60;4.40;;;1.50;97.30;;;;;;5014932;28;20434;-83
2021/04/14 01:37:24;;;;;;;11.27;4.50;;;1.50;97.30;;;;;;5032616;28;20258;-83
2021/04/14 01:39:49;;;;;;;7.00;4.20;;;1.50;97.30;;;;;;5014906;28;20266;-84
2021/04/14 01:42:15;;;;;;;7.37;4.23;;;1.50;97.30;;;;;;5014969;28;20290;-85
2021/04/14 01:44:40;;;;;;;9.53;5.70;;;1.50;97.30;;;;;;5013954;28;20220;-85
2021/04/14 01:47:06;;;;;;;8.70;5.03;;;1.50;97.30;;;;;;5006470;28;20190;-85
2021/04/14 01:49:31;;;;;;;11.30;4.83;;;1.40;97.30;;;;;;4994358;28;20184;-83
2021/04/14 01:51:57;;;;;;;9.00;5.17;;;1.40;97.30;;;;;;4994288;28;20551;-84
2021/04/14 01:54:23;;;;;;;9.30;4.63;;;1.40;97.30;;;;;;5012181;28;20231;-86
2021/04/14 01:56:48;;;;;;;11.43;5.00;;;1.40;97.30;;;;;;4994501;28;20183;-85
2021/04/14 01:59:14;;;;;;;9.63;5.50;;;1.40;97.30;;;;;;5011673;28;20312;-85
2021/04/14 02:01:40;;;;;;;9.70;4.60;;;1.40;97.30;;;;;;4993826;28;20188;-85
2021/04/14 02:04:05;;;;;;;10.70;5.50;;;1.40;97.30;;;;;;4994041;28;20284;-85
2021/04/14 02:06:31;;;;;;;9.93;5.30;;;1.40;97.30;;;;;;5009989;28;20831;-85
2021/04/14 02:08:56;;;;;;;8.93;4.90;;;1.40;97.30;;;;;;5014045;28;20214;-85
2021/04/14 02:11:22;;;;;;;15.07;5.30;;;1.30;97.30;;;;;;5013570;28;20224;-85
2021/04/14 02:13:48;;;;;;;12.90;5.30;;;1.30;97.30;;;;;;5014328;28;20204;-85
2021/04/14 02:16:17;;;;;;;9.23;4.87;;;1.30;97.30;;;;;;5031772;28;20646;-85
2021/04/14 02:18:44;;;;;;;12.00;5.23;;;1.30;97.30;;;;;;5031461;28;20207;-85
2021/04/14 02:21:10;;;;;;;7.93;4.80;;;1.30;97.30;;;;;;5014170;28;20489;-85
2021/04/14 02:23:40;;;;;;;7.80;5.20;;;1.30;97.30;;;;;;5025616;28;20448;-86
2021/04/14 02:26:13;;;;;;;11.90;5.20;;;1.30;97.30;;;;;;5029468;28;20470;-85
2021/04/14 02:28:39;;;;;;;14.43;5.00;;;1.30;97.30;;;;;;5031253;28;20437;-85
2021/04/14 02:31:07;;;;;;;13.13;4.80;;;1.30;97.30;;;;;;5048374;28;20768;-86
2021/04/14 02:33:33;;;;;;;9.50;4.73;;;1.30;97.30;;;;;;5032014;28;20443;-85
2021/04/14 02:35:59;;;;;;;19.43;5.37;;;1.20;97.30;;;;;;5030563;28;20469;-85
2021/04/14 02:38:24;;;;;;;14.00;5.60;;;1.20;97.30;;;;;;5029909;28;20435;-85
2021/04/14 02:40:51;;;;;;;13.37;5.30;;;1.10;97.30;;;;;;5030132;28;20455;-86
2021/04/14 02:43:18;;;;;;;25.90;5.77;;;1.10;97.30;;;;;;5030445;28;20419;-87
2021/04/14 02:45:43;;;;;;;10.50;4.93;;;1.10;97.30;;;;;;5031965;28;20532;-86
2021/04/14 02:48:10;;;;;;;10.40;5.53;;;1.10;97.30;;;;;;5015048;28;20436;-87
2021/04/14 02:50:36;;;;;;;17.20;6.13;;;1.00;97.30;;;;;;5003202;28;20207;-85
2021/04/14 02:53:02;;;;;;;10.50;4.97;;;1.00;97.30;;;;;;4997317;28;20776;-85
2021/04/14 02:55:30;;;;;;;9.10;4.57;;;1.00;97.30;;;;;;4996319;28;20450;-85
2021/04/14 02:57:56;;;;;;;12.27;5.27;;;1.00;97.30;;;;;;5017519;28;20872;-85
2021/04/14 03:00:23;;;;;;;11.50;5.53;;;0.90;97.30;;;;;;4999265;28;21000;-84
2021/04/14 03:02:49;;;;;;;14.33;5.57;;;0.90;97.30;;;;;;4998851;28;20799;-85
2021/04/14 03:05:16;;;;;;;9.77;4.93;;;0.90;97.30;;;;;;5003955;28;20458;-84
2021/04/14 03:07:42;;;;;;;13.87;6.57;;;0.90;97.30;;;;;;5018278;28;20423;-85
2021/04/14 03:10:10;;;;;;;13.30;5.90;;;0.90;97.30;;;;;;5018023;28;20446;-85
2021/04/14 03:12:36;;;;;;;10.77;5.47;;;0.90;97.30;;;;;;5035874;28;20505;-85
2021/04/14 03:15:03;;;;;;;16.10;5.60;;;0.80;97.30;;;;;;5018455;28;20426;-85
2021/04/14 03:17:29;;;;;;;12.80;5.53;;;0.80;97.30;;;;;;5017994;28;20522;-84
2021/04/14 03:19:55;;;;;;;11.20;5.43;;;0.80;97.30;;;;;;5018316;28;20473;-85
2021/04/14 03:22:20;;;;;;;9.10;5.03;;;0.80;97.30;;;;;;5018071;28;20204;-85
2021/04/14 03:24:46;;;;;;;10.37;5.33;;;0.70;97.30;;;;;;5035632;28;20785;-84
2021/04/14 03:27:11;;;;;;;14.40;5.20;;;0.70;97.30;;;;;;5036003;28;20217;-85
2021/04/14 03:29:37;;;;;;;14.27;5.60;;;0.70;97.30;;;;;;5018265;28;20201;-85
2021/04/14 03:32:03;;;;;;;9.83;5.50;;;0.70;97.30;;;;;;5017845;28;20200;-82
2021/04/14 03:34:29;;;;;;;15.47;5.57;;;0.70;97.30;;;;;;5016791;28;20190;-84
2021/04/14 03:36:54;;;;;;;8.90;5.47;;;0.70;97.30;;;;;;5033539;28;20407;-85
2021/04/14 03:39:20;;;;;;;20.47;6.43;;;0.70;97.30;;;;;;5016184;28;20269;-85
2021/04/14 03:41:46;;;;;;;12.83;6.17;;;0.60;97.30;;;;;;5016376;28;20200;-85
2021/04/14 03:44:11;;;;;;;9.77;5.23;;;0.60;97.30;;;;;;5016544;28;20275;-85
2021/04/14 03:46:37;;;;;;;9.30;5.37;;;0.60;97.30;;;;;;5015991;28;20243;-84
2021/04/14 03:49:03;;;;;;;11.53;5.67;;;0.50;97.30;;;;;;5016133;28;20202;-84
2021/04/14 03:51:28;;;;;;;12.00;5.70;;;0.50;97.30;;;;;;5016041;28;20199;-84
2021/04/14 03:53:55;;;;;;;16.90;6.33;;;0.50;97.30;;;;;;5016226;28;20173;-85
2021/04/14 03:56:22;;;;;;;18.93;5.63;;;0.50;97.30;;;;;;5016142;28;20544;-84
2021/04/14 03:58:51;;;;;;;12.40;5.17;;;0.50;97.30;;;;;;5016173;28;20491;-85
2021/04/14 04:01:27;;;;;;;9.57;5.83;;;0.50;97.30;;;;;;5015781;28;20984;-84
2021/04/14 04:03:54;;;;;;;13.80;5.50;;;0.40;97.30;;;;;;5033664;28;20411;-84
2021/04/14 04:06:20;;;;;;;13.33;6.03;;;0.40;97.30;;;;;;5000967;28;20459;-85
2021/04/14 04:08:47;;;;;;;18.53;6.80;;;0.40;97.30;;;;;;4995602;28;20995;-85
2021/04/14 04:11:13;;;;;;;13.77;5.77;;;0.40;97.30;;;;;;4995484;28;20474;-85
2021/04/14 04:13:39;;;;;;;11.73;5.67;;;0.50;97.30;;;;;;4996550;28;20460;-84
2021/04/14 04:16:05;;;;;;;10.30;6.20;;;0.50;97.30;;;;;;4996424;28;20447;-85
2021/04/14 04:18:32;;;;;;;17.07;6.37;;;0.50;97.30;;;;;;4997121;28;20416;-86
2021/04/14 04:20:58;;;;;;;13.60;5.80;;;0.50;97.30;;;;;;4997406;28;20224;-85
2021/04/14 04:23:24;;;;;;;9.20;5.57;;;0.50;97.30;;;;;;4997272;28;20593;-86
2021/04/14 04:25:51;;;;;;;11.10;5.47;;;0.50;97.30;;;;;;4997574;28;20494;-86
2021/04/14 04:28:17;;;;;;;17.27;7.13;;;0.50;97.30;;;;;;4997938;28;20833;-87
2021/04/14 04:30:42;;;;;;;12.17;5.40;;;0.50;97.30;;;;;;4997542;28;20424;-85
2021/04/14 04:33:08;;;;;;;13.50;5.47;;;0.50;97.30;;;;;;4998281;28;20393;-85
2021/04/14 04:35:34;;;;;;;15.20;5.00;;;0.50;97.30;;;;;;4997555;28;20177;-85
2021/04/14 04:38:00;;;;;;;16.93;6.10;;;0.50;97.30;;;;;;4998064;28;20563;-85
2021/04/14 04:40:26;;;;;;;12.43;4.90;;;0.50;97.30;;;;;;5015162;28;20166;-85
2021/04/14 04:42:52;;;;;;;13.80;5.13;;;0.50;97.30;;;;;;4997544;28;20408;-85
2021/04/14 04:45:20;;;;;;;15.40;5.07;;;0.50;97.30;;;;;;4997611;28;20471;-85
2021/04/14 04:47:46;;;;;;;9.23;4.93;;;0.50;97.30;;;;;;4984448;28;20431;-85
2021/04/14 04:50:12;;;;;;;24.33;6.00;;;0.60;97.30;;;;;;4977752;28;20405;-87
2021/04/14 04:52:38;;;;;;;11.57;5.80;;;0.60;97.30;;;;;;4977025;28;20288;-86
2021/04/14 04:55:05;;;;;;;12.77;5.43;;;0.60;97.30;;;;;;4977058;28;20460;-85
2021/04/14 04:57:31;;;;;;;18.33;5.87;;;0.60;97.30;;;;;;4994199;28;20185;-85
2021/04/14 04:59:56;;;;;;;9.47;5.50;;;0.70;97.30;;;;;;4977151;28;20429;-85
2021/04/14 05:02:22;;;;;;;9.90;4.80;;;0.70;97.30;;;;;;4992628;28;20249;-86
2021/04/14 05:04:48;;;;;;;15.07;5.33;;;0.70;97.30;;;;;;4979190;28;20252;-86
2021/04/14 05:07:14;;;;;;;15.83;5.73;;;0.80;97.30;;;;;;5013781;28;20173;-85
2021/04/14 05:09:40;;;;;;;32.93;6.23;;;0.80;97.30;;;;;;4996682;28;20223;-86
2021/04/14 05:12:06;;;;;;;16.27;5.80;;;0.90;97.30;;;;;;5016804;23;20883;-70
2021/04/14 05:14:32;;;;;;;10.60;5.50;;;0.90;97.30;;;;;;5013550;28;20766;-70
2021/04/14 05:16:58;;;;;;;22.10;6.60;;;1.00;97.30;;;;;;5029773;28;20490;-70
2021/04/14 05:19:23;;;;;;;15.13;5.70;;;1.00;97.30;;;;;;5031400;28;20604;-71
2021/04/14 05:21:50;;;;;;;13.23;5.37;;;1.00;97.30;;;;;;5013368;28;20196;-71
2021/04/14 05:24:16;;;;;;;10.83;5.47;;;1.10;97.30;;;;;;5013057;28;20204;-71
2021/04/14 05:26:42;;;;;;;15.80;5.70;;;1.10;97.30;;;;;;5013489;28;21016;-71
2021/04/14 05:29:07;;;;;;;21.53;5.53;;;1.10;97.30;;;;;;5013292;28;20274;-71
2021/04/14 05:31:37;;;;;;;15.77;5.30;;;1.20;97.30;;;;;;5030516;28;20199;-71
2021/04/14 05:34:03;;;;;;;20.60;6.20;;;1.20;97.30;;;;;;5013855;28;20176;-71
2021/04/14 05:36:29;;;;;;;15.77;5.77;;;1.30;97.30;;;;;;5012962;28;20423;-71
2021/04/14 05:38:55;;;;;;;25.37;6.03;;;1.30;97.30;;;;;;5013063;28;20415;-71
2021/04/14 05:41:22;;;;;;;15.07;5.07;;;1.40;97.30;;;;;;5030943;28;20435;-71
2021/04/14 05:43:48;;;;;;;20.53;5.57;;;1.50;97.30;;;;;;5012829;28;20181;-71
2021/04/14 05:46:17;;;;;;;16.73;5.20;;;1.50;97.30;;;;;;5013924;28;20455;-71
2021/04/14 05:48:44;;;;;;;13.27;5.77;;;1.60;97.30;;;;;;5031842;28;20399;-71
2021/04/14 05:51:23;;;;;;;11.10;5.27;;;1.70;97.30;;;;;;5005676;28;20440;-71
2021/04/14 05:53:50;;;;;;;18.67;6.47;;;1.80;97.30;;;;;;4993056;28;20578;-71
2021/04/14 05:56:16;;;;;;;12.53;5.63;;;1.90;97.30;;;;;;5011280;28;20408;-71
2021/04/14 05:58:42;;;;;;;12.63;4.90;;;1.90;97.30;;;;;;4993190;28;20962;-71
2021/04/14 06:01:10;;;;;;;10.77;5.27;;;2.00;97.30;;;;;;4993196;28;20434;-71
2021/04/14 06:03:36;;;;;;;13.07;6.10;;;2.10;97.30;;;;;;4993585;28;20612;-71
2021/04/14 06:06:02;;;;;;;15.80;5.37;;;2.20;97.30;;;;;;4993000;28;20455;-71
2021/04/14 06:08:30;;;;;;;13.80;5.80;;;2.30;97.30;;;;;;4992924;28;21042;-71
2021/04/14 06:10:57;;;;;;;11.43;5.30;;;2.40;97.30;;;;;;4993613;28;20547;-71
2021/04/14 06:13:23;;;;;;;12.97;5.60;;;2.40;97.30;;;;;;5010627;28;20559;-71
2021/04/14 06:15:49;;;;;;;21.30;5.67;;;2.50;97.30;;;;;;5011138;28;20495;-71
2021/04/14 06:18:14;;;;;;;15.00;5.80;;;2.60;97.30;;;;;;5011674;28;20184;-72
2021/04/14 06:20:40;;;;;;;17.37;6.10;;;2.60;97.30;;;;;;4993453;28;20566;-71
2021/04/14 06:23:12;;;;;;;21.57;6.60;;;2.80;97.30;;;;;;4993722;28;20185;-72
2021/04/14 06:25:42;;;;;;;18.00;5.57;;;2.90;97.30;;;;;;5011364;28;20467;-71
2021/04/14 06:28:08;;;;;;;21.27;5.40;;;3.00;97.30;;;;;;5011198;28;20892;-71
2021/04/14 06:30:37;;;;;;;14.23;5.83;;;3.10;97.30;;;;;;5010808;28;20432;-71
2021/04/14 06:33:06;;;;;;;16.30;6.00;;;3.10;97.30;;;;;;4997266;28;20419;-72
2021/04/14 06:35:32;;;;;;;11.80;5.80;;;3.20;97.30;;;;;;4997719;28;20483;-71
2021/04/14 06:37:59;;;;;;;12.93;5.60;;;3.40;97.30;;;;;;5013961;28;20464;-71
2021/04/14 06:40:51;;;;;;;15.63;5.57;;;3.50;97.30;;;;;;5027024;28;20415;-71
2021/04/14 06:43:44;;;;;;;16.00;4.83;;;3.60;97.30;;;;;;5021561;28;20412;-70
2021/04/14 06:46:22;;;;;;;14.47;5.33;;;3.60;97.30;;;;;;4993771;28;20459;-72
2021/04/14 06:48:56;;;;;;;20.67;6.20;;;3.80;97.30;;;;;;5014622;28;20446;-72
2021/04/14 06:51:38;;;;;;;16.27;5.63;;;3.90;97.30;;;;;;5014318;28;20518;-71
2021/04/14 06:54:23;;;;;;;12.03;5.73;;;4.00;97.30;;;;;;4996876;28;20423;-72
2021/04/14 06:56:53;;;;;;;11.33;5.03;;;4.00;97.30;;;;;;5011739;28;20449;-71
2021/04/14 06:59:21;;;;;;;19.67;5.97;;;4.00;97.30;;;;;;5017120;28;20411;-71
2021/04/14 07:02:20;;;;;;;16.00;4.77;;;4.10;97.30;;;;;;5036645;28;20472;-71
2021/04/14 07:04:49;;;;;;;18.87;7.33;;;4.30;97.30;;;;;;5014241;28;20443;-74
2021/04/14 07:07:28;;;;;;;14.07;5.83;;;4.30;97.30;;;;;;5032783;28;20456;-72
2021/04/14 07:10:00;;;;;;;13.63;6.37;;;4.40;97.30;;;;;;5016587;28;20486;-72
2021/04/14 07:12:26;;;;;;;11.47;5.83;;;4.40;97.30;;;;;;5015394;28;20458;-71
2021/04/14 07:14:54;;;;;;;13.40;5.80;;;4.50;97.30;;;;;;5034399;28;20511;-71
2021/04/14 07:17:42;;;;;;;11.60;6.87;;;4.60;97.30;;;;;;5016832;28;20415;-72
2021/04/14 07:20:19;;;;;;;12.57;6.03;;;4.80;97.30;;;;;;5017505;28;20422;-72
2021/04/14 07:23:00;;;;;;;16.73;5.73;;;4.90;97.30;;;;;;5018472;28;20772;-71
2021/04/14 07:25:33;;;;;;;15.60;6.20;;;5.00;97.30;;;;;;5034588;28;20462;-71
2021/04/14 07:28:17;;;;;;;11.57;5.73;;;5.10;97.30;;;;;;5033989;28;20767;-71
2021/04/14 07:30:48;;;;;;;10.97;5.10;;;5.10;97.30;;;;;;5034386;28;20689;-71
2021/04/14 07:33:30;;;;;;;15.53;6.43;;;5.10;97.30;;;;;;5016283;28;20407;-71
2021/04/14 07:36:18;;;;;;;19.53;5.77;;;5.20;97.30;;;;;;5016186;28;20423;-71
2021/04/14 07:39:02;;;;;;;17.07;6.10;;;5.20;97.30;;;;;;5033710;28;20491;-71
2021/04/14 07:41:56;;;;;;;15.60;5.77;;;5.20;97.30;;;;;;5015683;28;20902;-72
2021/04/14 07:44:37;;;;;;;25.30;7.40;;;5.30;97.30;;;;;;5033666;28;20483;-73
2021/04/14 07:47:07;;;;;;;14.03;6.77;;;5.50;97.30;;;;;;5016291;28;20423;-72
2021/04/14 07:49:34;;;;;;;21.30;7.43;;;5.60;97.30;;;;;;5015586;28;20411;-71
2021/04/14 07:52:00;;;;;;;11.50;6.53;;;5.60;97.30;;;;;;5015610;28;20431;-72
2021/04/14 07:54:37;;;;;;;12.37;7.40;;;5.70;97.30;;;;;;5034003;28;20426;-72
2021/04/14 07:57:04;;;;;;;14.97;6.80;;;5.80;97.30;;;;;;5033458;28;20163;-72
2021/04/14 07:59:33;;;;;;;25.03;7.30;;;5.90;97.30;;;;;;5015540;28;20415;-71
2021/04/14 08:02:02;;;;;;;12.77;5.03;;;5.90;97.30;;;;;;5015820;28;20510;-72
2021/04/14 08:04:35;;;;;;;15.07;6.10;;;5.80;97.30;;;;;;5032856;28;20411;-71
2021/04/14 08:07:19;;;;;;;12.20;6.30;;;5.80;97.30;;;;;;5033488;28;20411;-71
2021/04/14 08:09:52;;;;;;;14.40;5.17;;;5.80;97.30;;;;;;5015949;28;20415;-72
2021/04/14 08:12:32;;;;;;;9.33;5.37;;;5.90;97.30;;;;;;5015178;28;20467;-72
2021/04/14 08:15:18;;;;;;;11.27;4.70;;;6.20;97.30;;;;;;5033137;28;20422;-71
2021/04/14 08:17:46;;;;;;;14.97;5.70;;;6.10;97.30;;;;;;5015691;28;20426;-71
2021/04/14 08:20:28;;;;;;;20.30;4.57;;;6.00;97.30;;;;;;5032723;28;20801;-72
2021/04/14 08:23:10;;;;;;;10.20;4.33;;;5.90;97.30;;;;;;5015180;28;20474;-71
2021/04/14 08:25:40;;;;;;;13.63;4.50;;;5.80;97.30;;;;;;5014920;28;20463;-71
2021/04/14 08:28:05;;;;;;;13.13;3.83;;;6.10;97.30;;;;;;5014946;28;20410;-72
2021/04/14 08:30:31;;;;;;;17.70;4.43;;;6.60;97.30;;;;;;5015078;28;20415;-72
2021/04/14 08:33:14;;;;;;;10.27;3.60;;;6.90;97.10;;;;;;5033062;28;20390;-73
2021/04/14 08:35:44;;;;;;;15.87;4.07;;;7.00;95.00;;;;;;5014724;28;20207;-71
2021/04/14 08:38:23;;;;;;;8.30;3.83;;;6.70;95.70;;;;;;5014960;28;20423;-72
2021/04/14 08:40:57;;;;;;;13.30;4.10;;;6.40;95.90;;;;;;5032417;28;20930;-71
2021/04/14 08:43:41;;;;;;;13.60;4.93;;;6.10;96.40;;;;;;5032036;28;20396;-72
2021/04/14 08:46:25;;;;;;;13.00;4.43;;;5.90;97.30;;;;;;5014896;28;20521;-72
2021/04/14 08:49:03;;;;;;;10.80;4.40;;;5.90;97.30;;;;;;5012772;28;20479;-72
2021/04/14 08:51:35;;;;;;;11.50;5.10;;;5.90;97.30;;;;;;5012597;28;20424;-72
2021/04/14 08:54:01;;;;;;;7.53;3.70;;;6.30;97.30;;;;;;5012605;28;20409;-71
2021/04/14 08:56:26;;;;;;;8.70;3.70;;;6.50;97.30;;;;;;4995102;28;20684;-71
2021/04/14 08:58:54;;;;;;;11.10;4.10;;;6.50;97.30;;;;;;4994638;28;20264;-72
2021/04/14 09:01:20;;;;;;;14.07;3.90;;;6.30;96.60;;;;;;5013114;28;20212;-73
2021/04/14 09:03:47;;;;;;;9.00;3.50;;;6.10;97.10;;;;;;4995069;28;20489;-72
2021/04/14 09:06:15;;;;;;;16.73;3.30;;;6.10;97.30;;;;;;5012109;28;20447;-71
2021/04/14 09:08:45;;;;;;;14.00;3.87;;;6.30;95.60;;;;;;4995210;28;20422;-71
2021/04/14 09:11:21;;;;;;;8.90;4.03;;;6.30;95.90;;;;;;4994599;28;20439;-72
2021/04/14 09:14:00;;;;;;;12.03;4.60;;;6.10;96.60;;;;;;4994108;28;20420;-71
2021/04/14 09:16:48;;;;;;;17.57;4.27;;;6.00;96.40;;;;;;4995006;28;20622;-71
2021/04/14 09:19:33;;;;;;;9.83;3.70;;;6.50;97.30;;;;;;4994546;28;20406;-71
2021/04/14 09:22:00;;;;;;;14.63;3.93;;;6.90;94.50;;;;;;4994198;28;20511;-70
2021/04/14 09:24:32;;;;;;;8.60;4.10;;;7.00;94.80;;;;;;4994593;28;20404;-72
2021/04/14 09:27:00;;;;;;;14.53;4.20;;;7.10;93.70;;;;;;5012674;28;20412;-72
2021/04/14 09:29:34;;;;;;;18.40;4.93;;;7.30;93.40;;;;;;4994283;28;20412;-71
2021/04/14 09:32:08;;;;;;;10.93;4.33;;;7.50;92.90;;;;;;4994648;28;20428;-71
2021/04/14 09:34:43;;;;;;;10.23;4.20;;;7.50;91.80;;;;;;5011908;28;20887;-71
2021/04/14 09:37:17;;;;;;;7.97;4.73;;;7.50;91.50;;;;;;5011549;28;20411;-68
2021/04/14 09:39:46;;;;;;;10.57;4.63;;;7.70;92.30;;;;;;5012262;28;20563;-70
2021/04/14 09:42:24;;;;;;;8.90;4.47;;;7.90;90.60;;;;;;4994425;28;20439;-71
2021/04/14 09:44:55;;;;;;;7.90;3.20;;;7.90;90.00;;;;;;4993711;28;20968;-71
2021/04/14 09:47:23;;;;;;;5.97;3.50;;;7.90;88.50;;;;;;5003950;28;20791;-72
2021/04/14 09:49:50;;;;;;;10.53;3.70;;;8.00;89.60;;;;;;5013572;28;20997;-72
2021/04/14 09:52:46;;;;;;;7.00;3.07;;;8.00;88.70;;;;;;5031061;28;20919;-71
2021/04/14 09:55:29;;;;;;;9.20;4.60;;;7.70;90.90;;;;;;5013999;28;20899;-72
2021/04/14 09:57:55;;;;;;;8.30;4.43;;;7.10;94.30;;;;;;5009150;28;20792;-72
2021/04/14 10:00:23;;;;;;;10.30;4.87;;;6.80;96.40;;;;;;5012918;28;20419;-71
2021/04/14 10:02:53;;;;;;;8.90;3.80;;;6.70;97.20;;;;;;5030889;28;20414;-71
2021/04/14 10:05:19;;;;;;;5.93;3.70;;;6.70;96.60;;;;;;5002086;28;20451;-71
2021/04/14 10:07:47;;;;;;;14.67;4.40;;;6.70;95.80;;;;;;4992905;28;20412;-71
2021/04/14 10:10:18;;;;;;;9.77;3.67;;;6.90;95.30;;;;;;4993852;28;20795;-70
2021/04/14 10:12:44;;;;;;;8.13;2.90;;;7.50;94.20;;;;;;4998505;28;20453;-72
2021/04/14 10:15:10;;;;;;;5.67;2.30;;;7.90;89.10;;;;;;4979051;28;20502;-71
2021/04/14 10:17:36;;;;;;;4.07;2.70;;;8.20;88.90;;;;;;4995749;28;20427;-71
2021/04/14 10:20:15;;;;;;;5.30;3.20;;;8.10;89.20;;;;;;5011448;28;20412;-70
2021/04/14 10:22:49;;;;;;;11.20;3.53;;;7.80;90.30;;;;;;5001051;28;20481;-71
2021/04/14 10:25:29;;;;;;;5.60;3.00;;;7.70;90.90;;;;;;5030812;28;20450;-71
2021/04/14 10:28:03;;;;;;;15.73;3.40;;;7.40;90.70;;;;;;5010473;28;20410;-72
2021/04/14 10:30:32;;;;;;;9.90;3.60;;;7.20;91.30;;;;;;5010628;28;20415;-71
2021/04/14 10:33:07;;;;;;;5.53;3.40;;;7.20;92.10;;;;;;5029669;28;20495;-72
2021/04/14 10:35:34;;;;;;;7.77;4.17;;;7.20;91.80;;;;;;5013025;28;20418;-72
2021/04/14 10:38:01;;;;;;;17.90;4.23;;;7.30;91.70;;;;;;5012861;28;20417;-71
2021/04/14 10:40:39;;;;;;;7.67;3.43;;;7.60;91.20;;;;;;4995634;28;20523;-72
2021/04/14 10:43:19;;;;;;;9.17;3.00;;;8.00;89.40;;;;;;5010984;28;20481;-72
2021/04/14 10:46:02;;;;;;;5.37;3.00;;;8.10;88.00;;;;;;5010477;28;20494;-71
2021/04/14 10:48:30;;;;;;;7.83;3.37;;;8.10;88.30;;;;;;4993513;28;20934;-71
2021/04/14 10:51:08;;;;;;;9.30;2.70;;;8.30;89.40;;;;;;4993564;28;20436;-70
2021/04/14 10:53:38;;;;;;;6.10;2.77;;;8.60;87.90;;;;;;4992725;28;20404;-72
2021/04/14 10:56:11;;;;;;;10.20;3.40;;;8.70;86.70;;;;;;5014387;28;20498;-74
2021/04/14 10:58:36;;;;;;;6.63;3.30;;;8.50;86.90;;;;;;5012711;28;20889;-73
2021/04/14 11:01:11;;;;;;;8.27;3.50;;;8.20;88.00;;;;;;5011905;28;20550;-72
2021/04/14 11:03:37;;;;;;;10.53;3.17;;;8.20;88.40;;;;;;5002616;28;20227;-72
2021/04/14 11:06:05;;;;;;;11.27;3.13;;;8.40;86.80;;;;;;4991762;28;20502;-72
2021/04/14 11:08:34;;;;;;;8.73;3.10;;;8.80;87.50;;;;;;5009375;28;20504;-69
2021/04/14 11:11:00;;;;;;;10.70;2.93;;;9.10;86.60;;;;;;4992816;28;20436;-69
2021/04/14 11:13:29;;;;;;;6.53;3.20;;;9.30;84.40;;;;;;5057378;23;20588;-70
2021/04/14 11:15:55;;;;;;;10.13;3.60;;;9.60;84.20;;;;;;5051803;28;20466;-70
2021/04/14 11:18:34;;;;;;;5.03;2.97;;;9.70;83.40;;;;;;5054438;28;20405;-70
2021/04/14 11:23:33;;;;;;;10.80;2.87;;;9.50;82.00;;;;;;5073407;28;20749;-70
2021/04/14 11:26:09;;;;;;;6.90;2.93;;;9.60;81.70;;;;;;5055579;28;20445;-69
2021/04/14 11:28:48;;;;;;;5.77;2.40;;;10.00;82.80;;;;;;5073237;28;20883;-70
2021/04/14 11:31:35;;;;;;;8.03;3.30;;;10.40;80.30;;;;;;5073348;28;20423;-70
2021/04/14 11:34:15;;;;;;;5.97;2.90;;;10.90;82.50;;;;;;5054887;28;20418;-70
2021/04/14 11:36:41;;;;;;;7.83;2.43;;;11.00;79.60;;;;;;5073686;28;20827;-69
2021/04/14 11:39:07;;;;;;;5.50;2.80;;;10.40;81.20;;;;;;5055539;28;21081;-69
2021/04/14 11:41:39;;;;;;;5.07;3.00;;;10.00;81.20;;;;;;5055176;28;20450;-69
2021/04/14 11:44:23;;;;;;;8.50;2.40;;;9.50;80.60;;;;;;5073178;28;20175;-69
2021/04/14 11:47:01;;;;;;;5.10;2.40;;;9.40;82.00;;;;;;5072957;28;20460;-69
2021/04/14 11:49:36;;;;;;;6.13;2.00;;;9.50;79.20;;;;;;5073525;28;20411;-70
2021/04/14 11:52:27;;;;;;;5.43;2.60;;;9.70;79.50;;;;;;5073575;28;20524;-69
2021/04/14 11:54:57;;;;;;;10.13;2.37;;;9.80;79.40;;;;;;5073060;28;20401;-69
2021/04/14 11:57:38;;;;;;;8.47;2.73;;;9.70;79.10;;;;;;5055453;28;20417;-70
2021/04/14 12:00:21;;;;;;;4.93;2.10;;;9.30;79.10;;;;;;5073022;28;20489;-70
2021/04/14 12:02:49;;;;;;;11.80;2.03;;;8.80;79.00;;;;;;5055079;28;20425;-69
2021/04/14 12:05:16;;;;;;;3.67;2.00;;;8.90;78.50;;;;;;5055499;28;20457;-69
2021/04/14 12:07:42;;;;;;;4.90;2.13;;;9.20;79.30;;;;;;5054841;28;20489;-68
2021/04/14 12:10:08;;;;;;;4.60;1.90;;;9.60;79.00;;;;;;5073293;28;20413;-69
2021/04/14 12:12:34;;;;;;;4.33;2.20;;;10.20;80.80;;;;;;5054806;28;20503;-70
2021/04/14 12:15:00;;;;;;;6.23;2.47;;;10.60;77.60;;;;;;5073442;28;20787;-69
2021/04/14 12:17:26;;;;;;;8.93;2.70;;;10.20;76.60;;;;;;5054840;28;20414;-69
2021/04/14 12:19:52;;;;;;;13.13;2.50;;;9.80;77.90;;;;;;5054860;28;20659;-69
2021/04/14 12:22:19;;;;;;;9.00;2.60;;;9.60;80.10;;;;;;5054419;28;20437;-69
2021/04/14 12:24:45;;;;;;;10.10;2.83;;;9.40;81.20;;;;;;5054549;28;20907;-69
2021/04/14 12:27:11;;;;;;;4.40;2.97;;;9.20;81.40;;;;;;5055042;28;20791;-69
2021/04/14 12:29:43;;;;;;;2.93;2.17;;;9.10;79.50;;;;;;5053949;28;20414;-69
2021/04/14 12:32:33;;;;;;;4.73;2.60;;;8.90;79.00;;;;;;5054628;28;20437;-68
2021/04/14 12:35:06;;;;;;;10.60;2.57;;;9.20;80.20;;;;;;5066831;28;20417;-69
2021/04/14 12:37:35;;;;;;;6.20;2.70;;;9.90;80.40;;;;;;5054104;28;20466;-69
2021/04/14 12:40:04;;;;;;;4.80;2.20;;;10.50;79.70;;;;;;5072367;28;20780;-69
2021/04/14 12:42:37;;;;;;;4.23;2.83;;;10.50;80.50;;;;;;5054006;28;20445;-69
2021/04/14 12:45:24;;;;;;;5.97;2.40;;;10.00;80.10;;;;;;5054328;28;20453;-69
2021/04/14 12:47:53;;;;;;;3.23;1.87;;;9.70;81.80;;;;;;5054093;28;20416;-69
2021/04/14 12:50:36;;;;;;;4.37;2.07;;;9.40;80.60;;;;;;5071723;28;20474;-68
2021/04/14 12:53:04;;;;;;;3.67;1.87;;;9.20;77.70;;;;;;5071922;28;20745;-69
2021/04/14 12:55:46;;;;;;;6.97;2.50;;;9.90;79.20;;;;;;5072108;28;20443;-69
2021/04/14 12:58:32;;;;;;;9.27;2.50;;;10.50;77.70;;;;;;5054100;28;20488;-69
2021/04/14 13:00:58;;;;;;;5.23;2.37;;;10.20;80.70;;;;;;5071820;28;20529;-69
2021/04/14 13:03:38;;;;;;;6.80;2.47;;;9.80;82.00;;;;;;5053716;28;20559;-69
2021/04/14 13:06:12;;;;;;;8.30;2.30;;;9.50;82.80;;;;;;5072537;28;20917;-69
2021/04/14 13:08:40;;;;;;;4.87;2.17;;;9.30;83.60;;;;;;5071782;28;20876;-69